Weather Underground History page Text

Daily Summary for November 18, 2018 Units:  English    Metric   Both
« Previous Day
Next Day »
Daily Weekly Monthly Yearly Custom
  Current: High: Low: Average:
Temperature: 63.5 °F TemperatureF °F 37.2 °F 45.8 °F
Dew Point: 46.6 °F DewpointF °F 35.6 °F 41.6 °F
Humidity: 54 % Humidity % 54 % 86 %
Wind Speed: 4.6 mph WindSpeedMPH mph 0.0 mph 0.7 mph
Wind Gust: 2.4 mph WindSpeedGustMPH mph - -
Wind:South - - WSW
Pressure: 30.18 in PressureIn in 30.18 in -
Precipitation: 0.00 in      
Historical Graphs
 
 
Tabular Data for November 18, 2018
Time Temperature Dew Point Pressure Wind Wind Speed Wind Gust Humidity Rainfall Rate (Hourly)
TemperatureF °F DewpointF °F PressureIn in Calm     Humidity % HourlyPrecipIn in
00:04 42.5 °F 40.6 °F 30.21 in Calm     93 % 0.00 in
00:09 42.3 °F 40.4 °F 30.22 in Calm     93 % 0.00 in
00:14 42.3 °F 40.4 °F 30.21 in Calm     93 % 0.00 in
00:19 42.2 °F 40.3 °F 30.21 in Calm     93 % 0.00 in
00:24 42.2 °F 40.3 °F 30.21 in Calm     93 % 0.00 in
00:29 42.0 °F 40.1 °F 30.21 in Calm     93 % 0.00 in
00:34 41.6 °F 39.7 °F 30.21 in Calm     93 % 0.00 in
00:39 41.4 °F 39.8 °F 30.21 in Calm     94 % 0.00 in
00:44 41.3 °F 39.7 °F 30.21 in Calm     94 % 0.00 in
00:49 41.2 °F 39.6 °F 30.21 in Calm     94 % 0.00 in
00:54 41.2 °F 39.6 °F 30.21 in Calm     94 % 0.00 in
00:59 41.3 °F 39.7 °F 30.21 in Calm     94 % 0.00 in
01:04 41.5 °F 39.9 °F 30.21 in Calm     94 % 0.00 in
01:09 41.7 °F 40.1 °F 30.21 in Calm     94 % 0.00 in
01:14 41.9 °F 40.3 °F 30.21 in Calm     94 % 0.00 in
01:19 42.2 °F 40.6 °F 30.21 in Calm     94 % 0.00 in
01:24 42.2 °F 40.6 °F 30.21 in Calm     94 % 0.00 in
01:29 42.4 °F 40.8 °F 30.21 in Calm     94 % 0.00 in
01:34 42.5 °F 40.6 °F 30.21 in Calm     93 % 0.00 in
01:39 42.5 °F 40.6 °F 30.21 in Calm     93 % 0.00 in
01:44 42.3 °F 40.4 °F 30.21 in Calm     93 % 0.00 in
01:49 42.5 °F 40.6 °F 30.21 in Calm     93 % 0.00 in
01:54 42.3 °F 40.4 °F 30.21 in Calm     93 % 0.00 in
01:59 42.2 °F 40.3 °F 30.21 in Calm     93 % 0.00 in
02:04 42.0 °F 40.4 °F 30.21 in Calm     94 % 0.00 in
02:09 42.0 °F 40.4 °F 30.21 in Calm     94 % 0.00 in
02:14 41.9 °F 40.0 °F 30.21 in Calm     93 % 0.00 in
02:19 41.6 °F 40.0 °F 30.21 in Calm     94 % 0.00 in
02:24 41.4 °F 39.8 °F 30.21 in Calm     94 % 0.00 in
02:29 41.2 °F 39.6 °F 30.21 in Calm     94 % 0.00 in
02:34 41.0 °F 39.4 °F 30.21 in Calm     94 % 0.00 in
02:39 41.0 °F 39.4 °F 30.21 in Calm     94 % 0.00 in
02:44 40.9 °F 39.3 °F 30.21 in Calm     94 % 0.00 in
02:49 40.7 °F 39.4 °F 30.21 in Calm     95 % 0.00 in
02:54 40.7 °F 39.4 °F 30.21 in Calm     95 % 0.00 in
02:59 40.9 °F 39.6 °F 30.21 in Calm     95 % 0.00 in
03:04 40.8 °F 39.5 °F 30.22 in Calm     95 % 0.00 in
03:09 40.6 °F 39.0 °F 30.21 in Calm     94 % 0.00 in
03:14 40.5 °F 39.2 °F 30.21 in Calm     95 % 0.00 in
03:19 40.6 °F 39.3 °F 30.21 in Calm     95 % 0.00 in
03:24 40.5 °F 38.9 °F 30.21 in Calm     94 % 0.00 in
03:29 40.3 °F 38.7 °F 30.21 in Calm     94 % 0.00 in
03:34 40.3 °F 39.0 °F 30.21 in Calm     95 % 0.00 in
03:39 40.4 °F 38.8 °F 30.22 in Calm     94 % 0.00 in
03:44 40.4 °F 38.8 °F 30.22 in Calm     94 % 0.00 in
03:49 40.3 °F 39.0 °F 30.22 in Calm     95 % 0.00 in
03:54 40.4 °F 39.1 °F 30.22 in Calm     95 % 0.00 in
03:59 40.6 °F 39.3 °F 30.23 in Calm     95 % 0.00 in
04:04 40.6 °F 39.3 °F 30.22 in Calm     95 % 0.00 in
04:09 40.8 °F 39.5 °F 30.23 in Calm     95 % 0.00 in
04:14 41.0 °F 39.7 °F 30.23 in Calm     95 % 0.00 in
04:19 41.2 °F 39.9 °F 30.23 in Calm     95 % 0.00 in
04:24 41.5 °F 40.2 °F 30.23 in Calm     95 % 0.00 in
04:29 41.8 °F 40.5 °F 30.23 in Calm     95 % 0.00 in
04:34 42.2 °F 40.9 °F 30.23 in Calm     95 % 0.00 in
04:39 42.2 °F 40.6 °F 30.23 in Calm     94 % 0.00 in
04:44 42.1 °F 40.5 °F 30.23 in Calm     94 % 0.00 in
04:49 42.1 °F 40.5 °F 30.24 in Calm     94 % 0.00 in
04:54 42.0 °F 40.4 °F 30.24 in Calm     94 % 0.00 in
04:59 41.9 °F 40.0 °F 30.24 in Calm     93 % 0.00 in
05:04 41.0 °F 39.1 °F 30.24 in Calm     93 % 0.00 in
05:09 39.7 °F 37.8 °F 30.24 in Calm     93 % 0.00 in
05:14 39.3 °F 37.7 °F 30.24 in Calm     94 % 0.00 in
05:19 39.6 °F 38.0 °F 30.24 in Calm     94 % 0.00 in
05:24 40.2 °F 38.9 °F 30.24 in Calm     95 % 0.00 in
05:29 40.4 °F 39.1 °F 30.24 in Calm     95 % 0.00 in
05:34 40.4 °F 39.1 °F 30.24 in Calm     95 % 0.00 in
05:39 40.4 °F 39.1 °F 30.24 in Calm     95 % 0.00 in
05:44 40.2 °F 38.9 °F 30.24 in Calm     95 % 0.00 in
05:49 40.0 °F 38.7 °F 30.24 in Calm     95 % 0.00 in
05:54 40.2 °F 38.9 °F 30.24 in Calm     95 % 0.00 in
05:59 40.4 °F 39.1 °F 30.24 in Calm     95 % 0.00 in
06:04 40.5 °F 39.2 °F 30.24 in South 1.2 mph   95 % 0.00 in
06:09 39.8 °F 38.2 °F 30.25 in Calm     94 % 0.00 in
06:14 38.5 °F 36.7 °F 30.24 in Calm     93 % 0.00 in
06:19 37.8 °F 36.2 °F 30.25 in Calm     94 % 0.00 in
06:24 37.2 °F 35.6 °F 30.25 in Calm     94 % 0.00 in
06:29 37.2 °F 35.9 °F 30.24 in Calm     95 % 0.00 in
06:34 37.8 °F 36.8 °F 30.25 in Calm     96 % 0.00 in
06:39 37.6 °F 36.3 °F 30.25 in Calm     95 % 0.00 in
06:44 37.7 °F 36.4 °F 30.25 in Calm     95 % 0.00 in
06:49 38.1 °F 37.1 °F 30.25 in Calm     96 % 0.00 in
06:55 38.4 °F 37.4 °F 30.25 in Calm     96 % 0.00 in
06:59 38.4 °F 37.4 °F 30.26 in Calm     96 % 0.00 in
07:04 38.4 °F 37.4 °F 30.25 in Calm     96 % 0.00 in
07:09 38.4 °F 37.4 °F 30.25 in Calm     96 % 0.00 in
07:14 38.3 °F 37.0 °F 30.26 in Calm     95 % 0.00 in
07:19 38.3 °F 37.0 °F 30.25 in Calm     95 % 0.00 in
07:24 38.3 °F 37.0 °F 30.26 in Calm     95 % 0.00 in
07:29 38.7 °F 37.7 °F 30.26 in Calm     96 % 0.00 in
07:34 39.2 °F 38.2 °F 30.26 in Calm     96 % 0.00 in
07:39 39.6 °F 38.6 °F 30.27 in Calm     96 % 0.00 in
07:44 39.7 °F 38.4 °F 30.27 in Calm     95 % 0.00 in
07:49 40.2 °F 38.9 °F 30.27 in Calm     95 % 0.00 in
07:54 41.2 °F 40.1 °F 30.27 in Calm     96 % 0.00 in
07:59 41.1 °F 39.8 °F 30.26 in Calm     95 % 0.00 in
08:04 41.1 °F 39.5 °F 30.26 in Calm     94 % 0.00 in
08:09 41.5 °F 40.2 °F 30.27 in Calm     95 % 0.00 in
08:14 42.0 °F 40.7 °F 30.26 in Calm     95 % 0.00 in
08:19 42.5 °F 41.2 °F 30.26 in Calm     95 % 0.00 in
08:24 43.1 °F 41.8 °F 30.26 in Calm     95 % 0.00 in
08:29 44.0 °F 42.4 °F 30.27 in Calm     94 % 0.00 in
08:34 45.0 °F 43.1 °F 30.27 in Calm     93 % 0.00 in
08:39 46.3 °F 44.4 °F 30.27 in Calm     93 % 0.00 in
08:44 47.4 °F 45.2 °F 30.27 in Calm     92 % 0.00 in
08:49 47.8 °F 45.0 °F 30.27 in Calm     90 % 0.00 in
08:54 48.1 °F 45.0 °F 30.27 in Calm     89 % 0.00 in
08:59 48.1 °F 45.0 °F 30.27 in Calm     89 % 0.00 in
09:04 48.6 °F 45.8 °F 30.27 in Calm     90 % 0.00 in
09:09 49.2 °F 45.8 °F 30.27 in Calm     88 % 0.00 in
09:14 49.9 °F 46.5 °F 30.27 in Calm     88 % 0.00 in
09:19 50.4 °F 46.4 °F 30.26 in Calm     86 % 0.00 in
09:24 50.9 °F 46.9 °F 30.27 in Calm     86 % 0.00 in
09:29 51.5 °F 47.5 °F 30.26 in Calm     86 % 0.00 in
09:34 52.2 °F 47.8 °F 30.26 in Calm     85 % 0.00 in
09:39 52.8 °F 47.8 °F 30.25 in Calm     83 % 0.00 in
09:44 53.7 °F 48.3 °F 30.26 in Calm     82 % 0.00 in
09:49 54.4 °F 48.4 °F 30.26 in Calm     80 % 0.00 in
09:54 55.1 °F 48.7 °F 30.25 in Calm     79 % 0.00 in
09:59 55.5 °F 48.1 °F 30.25 in Calm     76 % 0.00 in
10:04 56.0 °F 48.2 °F 30.25 in WSW 3.5 mph 1.6 mph 75 % 0.00 in
10:09 57.0 °F 48.8 °F 30.25 in West 3.0 mph 0.6 mph 74 % 0.00 in
10:14 58.1 °F 48.7 °F 30.25 in West 1.2 mph 0.5 mph 71 % 0.00 in
10:19 58.6 °F 48.8 °F 30.25 in West 2.3 mph 1.2 mph 70 % 0.00 in
10:24 58.5 °F 48.0 °F 30.25 in SSE 3.5 mph 0.8 mph 68 % 0.00 in
10:29 59.1 °F 48.5 °F 30.25 in South 3.5 mph 1.5 mph 68 % 0.00 in
10:34 59.4 °F 48.4 °F 30.24 in NW 3.5 mph 1.4 mph 67 % 0.00 in
10:39 60.2 °F 48.0 °F 30.24 in WSW 3.5 mph 1.8 mph 64 % 0.00 in
10:44 60.3 °F 48.5 °F 30.24 in South 1.2 mph   65 % 0.00 in
10:49 60.3 °F 48.1 °F 30.24 in NW 1.2 mph 0.3 mph 64 % 0.00 in
10:54 59.8 °F 47.2 °F 30.23 in WSW 5.8 mph 2.4 mph 63 % 0.00 in
10:59 59.3 °F 47.1 °F 30.23 in West 2.3 mph 1.2 mph 64 % 0.00 in
11:04 59.3 °F 47.9 °F 30.23 in West 2.0 mph 1.2 mph 66 % 0.00 in
11:09 59.5 °F 48.5 °F 30.23 in SW 1.2 mph   67 % 0.00 in
11:14 59.6 °F 47.8 °F 30.23 in WSW 1.0 mph 0.4 mph 65 % 0.00 in
11:19 59.9 °F 48.1 °F 30.23 in West 2.3 mph 1.6 mph 65 % 0.00 in
11:24 60.4 °F 47.7 °F 30.22 in West 2.3 mph 0.9 mph 63 % 0.00 in
11:29 60.3 °F 46.8 °F 30.22 in NW 3.5 mph 1.3 mph 61 % 0.00 in
11:34 60.5 °F 47.4 °F 30.22 in West 3.5 mph 2.4 mph 62 % 0.00 in
11:39 60.9 °F 47.8 °F 30.21 in West 3.5 mph 1.6 mph 62 % 0.00 in
11:44 61.3 °F 47.3 °F 30.21 in West 3.5 mph 2.2 mph 60 % 0.00 in
11:49 61.8 °F 47.3 °F 30.21 in South 2.3 mph 0.9 mph 59 % 0.00 in
11:54 62.3 °F 47.8 °F 30.21 in WSW 3.5 mph 1.6 mph 59 % 0.00 in
11:59 62.2 °F 46.3 °F 30.21 in West 5.8 mph 2.3 mph 56 % 0.00 in
12:04 62.3 °F 46.4 °F 30.21 in West 3.5 mph 0.9 mph 56 % 0.00 in
12:09 62.2 °F 46.8 °F 30.20 in NW 2.3 mph 0.5 mph 57 % 0.00 in
12:14 63.3 °F 47.8 °F 30.20 in West 2.3 mph   57 % 0.00 in
12:19 63.1 °F 46.7 °F 30.20 in SSE 5.8 mph 3.1 mph 55 % 0.00 in
12:24 63.3 °F 46.9 °F 30.19 in SSW 5.8 mph 2.4 mph 55 % 0.00 in
12:29 62.9 °F 46.0 °F 30.19 in WSW 3.5 mph 0.6 mph 54 % 0.00 in
12:34 63.4 °F 47.4 °F 30.19 in West 3.5 mph 1.1 mph 56 % 0.00 in
12:39 63.5 °F 46.6 °F 30.18 in South 4.6 mph 2.4 mph 54 % 0.00 in
Murfreesboro Weather Live
Compliments of Weather Underground - 3.25 mb

Script developed by  Jim McMurry - jmcmurry@mwt.net Adapted for the template by  Wim van der Kuil - Leuven-Template.eu